Time;durP1;ratioP1;P1;durP2;ratioP2;P2;SDS_P1;SDS_P2;PMS_P1;PMS_P2;Temp;Humidity;BMP_temperature;BMP_pressure;BME280_temperature;BME280_humidity;BME280_pressure;Samples;Min_cycle;Max_cycle;Signal;HPM_P1;HPM_P2
2021/08/20 00:01:27;;;;;;;7.00;2.80;;;18.90;99.90;;;;;;4991526;28;20375;-65
2021/08/20 00:03:52;;;;;;;6.77;2.70;;;18.80;99.90;;;;;;4992654;28;20469;-64
2021/08/20 00:06:18;;;;;;;6.13;2.70;;;18.80;99.90;;;;;;4991284;28;20802;-65
2021/08/20 00:08:44;;;;;;;6.68;2.70;;;18.80;99.90;;;;;;4991918;28;20805;-66
2021/08/20 00:11:10;;;;;;;6.45;2.80;;;18.80;99.90;;;;;;4991682;28;20441;-64
2021/08/20 00:13:35;;;;;;;6.37;2.77;;;18.80;99.90;;;;;;4991153;28;20378;-64
2021/08/20 00:16:01;;;;;;;6.68;3.00;;;18.70;99.90;;;;;;4991094;28;20824;-66
2021/08/20 00:18:27;;;;;;;6.80;3.00;;;18.70;99.90;;;;;;4991384;28;20898;-64
2021/08/20 00:20:53;;;;;;;6.23;2.90;;;18.70;99.90;;;;;;4991774;28;20810;-64
2021/08/20 00:23:18;;;;;;;6.82;3.00;;;18.70;99.90;;;;;;4991073;28;20387;-64
2021/08/20 00:25:44;;;;;;;7.80;2.63;;;18.70;99.90;;;;;;4991858;28;21133;-64
2021/08/20 00:28:10;;;;;;;6.60;3.20;;;18.70;99.90;;;;;;4990759;28;20389;-64
2021/08/20 00:30:36;;;;;;;6.28;2.78;;;18.70;99.90;;;;;;4991864;28;20383;-64
2021/08/20 00:33:02;;;;;;;6.43;3.20;;;18.80;99.90;;;;;;4991220;28;20843;-64
2021/08/20 00:35:28;;;;;;;5.82;2.80;;;18.90;99.90;;;;;;4990480;28;20393;-64
2021/08/20 00:37:54;;;;;;;5.73;2.90;;;18.80;99.90;;;;;;4991147;28;20808;-64
2021/08/20 00:40:19;;;;;;;5.70;2.80;;;18.80;99.90;;;;;;4990744;28;20393;-64
2021/08/20 00:42:47;;;;;;;5.75;2.75;;;18.80;99.90;;;;;;4991580;28;20474;-66
2021/08/20 00:45:13;;;;;;;9.13;3.10;;;18.80;99.90;;;;;;4990450;28;20948;-63
2021/08/20 00:47:40;;;;;;;6.97;3.40;;;18.80;99.90;;;;;;4991478;28;20410;-64
2021/08/20 00:50:07;;;;;;;6.15;2.60;;;18.80;99.90;;;;;;4991373;28;20382;-60
2021/08/20 00:52:33;;;;;;;6.20;2.90;;;18.80;99.90;;;;;;4991173;28;20893;-64
2021/08/20 00:55:00;;;;;;;6.47;2.70;;;19.00;99.90;;;;;;4991277;28;20896;-63
2021/08/20 00:57:26;;;;;;;7.00;3.13;;;19.00;99.90;;;;;;4990605;28;21179;-64
2021/08/20 00:59:52;;;;;;;7.90;2.70;;;19.10;99.90;;;;;;4991343;28;21020;-63
2021/08/20 01:02:17;;;;;;;8.48;2.70;;;19.20;99.90;;;;;;4990421;28;20410;-63
2021/08/20 01:04:43;;;;;;;5.78;2.63;;;19.30;99.90;;;;;;4990845;28;20877;-64
2021/08/20 01:07:09;;;;;;;5.70;2.70;;;19.30;99.90;;;;;;4990464;28;20399;-60
2021/08/20 01:09:36;;;;;;;5.80;2.80;;;19.30;99.90;;;;;;4991486;28;20390;-64
2021/08/20 01:12:02;;;;;;;7.60;3.20;;;19.20;99.90;;;;;;4991170;28;20387;-64
2021/08/20 01:14:35;;;;;;;7.73;2.90;;;19.10;99.90;;;;;;4990273;28;20674;-64
2021/08/20 01:17:06;;;;;;;8.48;3.00;;;19.10;99.90;;;;;;4991016;28;20394;-64
2021/08/20 01:19:33;;;;;;;7.70;2.90;;;19.20;99.90;;;;;;4990340;28;20387;-66
2021/08/20 01:22:00;;;;;;;6.45;2.80;;;19.10;99.90;;;;;;4991393;28;20394;-64
2021/08/20 01:24:27;;;;;;;6.95;2.63;;;19.10;99.90;;;;;;4990028;28;20438;-63
2021/08/20 01:26:53;;;;;;;6.35;2.90;;;19.10;99.90;;;;;;4990899;28;20421;-63
2021/08/20 01:29:20;;;;;;;6.93;2.90;;;19.00;99.90;;;;;;4989794;28;20414;-63
2021/08/20 01:31:46;;;;;;;7.85;3.00;;;19.00;99.90;;;;;;4990195;28;20830;-63
2021/08/20 01:34:13;;;;;;;8.60;3.50;;;18.90;99.90;;;;;;4989856;28;20425;-63
2021/08/20 01:36:38;;;;;;;7.97;3.10;;;18.90;99.90;;;;;;4990468;28;20407;-64
2021/08/20 01:39:05;;;;;;;6.90;3.20;;;18.80;99.90;;;;;;4990559;28;20862;-64
2021/08/20 01:41:31;;;;;;;7.38;3.28;;;18.80;99.90;;;;;;4989684;28;20388;-64
2021/08/20 01:43:58;;;;;;;5.70;2.90;;;18.80;99.90;;;;;;4990283;28;20794;-64
2021/08/20 01:46:25;;;;;;;6.20;3.00;;;18.90;99.90;;;;;;4989573;28;20765;-64
2021/08/20 01:48:53;;;;;;;7.03;3.38;;;18.80;99.90;;;;;;4990493;28;20433;-64
2021/08/20 01:51:22;;;;;;;7.55;3.38;;;18.70;99.90;;;;;;4989382;28;20409;-64
2021/08/20 01:53:49;;;;;;;8.80;3.60;;;18.80;99.90;;;;;;4990528;28;20394;-63
2021/08/20 01:56:22;;;;;;;6.50;3.30;;;18.90;99.90;;;;;;4989738;28;20819;-63
2021/08/20 01:58:53;;;;;;;7.80;3.00;;;18.80;99.90;;;;;;4990561;28;20441;-64
2021/08/20 02:01:18;;;;;;;7.22;3.20;;;18.70;99.90;;;;;;4989654;28;20526;-65
2021/08/20 02:03:44;;;;;;;6.10;3.20;;;18.70;99.90;;;;;;4990333;28;20562;-64
2021/08/20 02:06:10;;;;;;;8.05;3.10;;;18.80;99.90;;;;;;4989906;28;20410;-61
2021/08/20 02:08:36;;;;;;;6.73;2.80;;;18.80;99.90;;;;;;4989901;28;20390;-64
2021/08/20 02:11:02;;;;;;;6.10;3.28;;;18.60;99.90;;;;;;4990435;28;20469;-64
2021/08/20 02:13:28;;;;;;;6.00;2.92;;;18.60;99.90;;;;;;4972016;28;20855;-65
2021/08/20 02:15:54;;;;;;;8.50;3.40;;;18.60;99.90;;;;;;4990361;28;20386;-64
2021/08/20 02:18:20;;;;;;;6.80;3.10;;;18.60;99.90;;;;;;4989784;28;20397;-65
2021/08/20 02:20:46;;;;;;;8.90;3.00;;;18.60;99.90;;;;;;4990311;28;20889;-64
2021/08/20 02:23:12;;;;;;;7.00;3.20;;;18.60;99.90;;;;;;4989956;28;20382;-60
2021/08/20 02:25:38;;;;;;;6.18;3.15;;;18.50;99.90;;;;;;4989621;28;20754;-64
2021/08/20 02:28:05;;;;;;;6.80;3.10;;;18.50;99.90;;;;;;4990304;28;20541;-64
2021/08/20 02:30:30;;;;;;;9.77;2.90;;;18.50;99.90;;;;;;4989194;28;20707;-66
2021/08/20 02:32:56;;;;;;;6.10;2.72;;;18.50;99.90;;;;;;4989835;28;21166;-64
2021/08/20 02:35:23;;;;;;;6.80;3.10;;;18.50;99.90;;;;;;4989234;28;20391;-65
2021/08/20 02:37:49;;;;;;;8.33;3.40;;;18.50;99.90;;;;;;4990116;28;20458;-65
2021/08/20 02:40:15;;;;;;;5.65;3.10;;;18.50;99.90;;;;;;4989832;28;20481;-60
2021/08/20 02:42:40;;;;;;;7.80;3.20;;;18.60;99.90;;;;;;4980897;28;20392;-64
2021/08/20 02:45:07;;;;;;;6.57;3.00;;;18.60;99.90;;;;;;4990636;28;20410;-65
2021/08/20 02:47:33;;;;;;;5.45;2.72;;;18.60;99.90;;;;;;4982631;28;21095;-64
2021/08/20 02:49:58;;;;;;;6.53;2.75;;;18.60;99.90;;;;;;4974062;28;20427;-64
2021/08/20 02:52:24;;;;;;;6.50;3.00;;;18.60;99.90;;;;;;4973399;28;20428;-64
2021/08/20 02:54:50;;;;;;;6.57;3.13;;;18.60;99.90;;;;;;4973237;28;20388;-65
2021/08/20 02:57:15;;;;;;;6.67;3.40;;;18.50;99.90;;;;;;4973569;28;20809;-60
2021/08/20 02:59:41;;;;;;;8.25;3.25;;;18.50;99.90;;;;;;4973785;28;20396;-64
2021/08/20 03:02:07;;;;;;;6.88;2.70;;;18.60;99.90;;;;;;4973942;28;20395;-66
2021/08/20 03:04:32;;;;;;;7.07;3.20;;;18.60;99.90;;;;;;4973065;28;20550;-64
2021/08/20 03:06:58;;;;;;;6.20;3.10;;;18.60;99.90;;;;;;4973972;28;20396;-64
2021/08/20 03:09:24;;;;;;;6.45;3.20;;;18.50;99.90;;;;;;4972955;28;20415;-65
2021/08/20 03:11:49;;;;;;;5.55;3.03;;;18.50;99.90;;;;;;4973845;28;20970;-64
2021/08/20 03:14:16;;;;;;;7.38;3.50;;;18.50;99.90;;;;;;4973536;28;20385;-61
2021/08/20 03:16:43;;;;;;;7.28;3.30;;;18.60;99.90;;;;;;4973609;28;20453;-64
2021/08/20 03:19:09;;;;;;;6.37;3.33;;;18.60;99.90;;;;;;4973477;28;20455;-64
2021/08/20 03:21:36;;;;;;;8.17;3.10;;;18.50;99.90;;;;;;4972915;28;20399;-64
2021/08/20 03:24:02;;;;;;;5.87;2.80;;;18.50;99.90;;;;;;4973806;28;20454;-66
2021/08/20 03:26:28;;;;;;;6.78;3.00;;;18.60;99.90;;;;;;4979367;28;20409;-64
2021/08/20 03:28:53;;;;;;;7.03;3.00;;;18.60;99.90;;;;;;4983247;28;20791;-64
2021/08/20 03:31:20;;;;;;;6.75;2.83;;;18.60;99.90;;;;;;4978454;28;20389;-63
2021/08/20 03:33:47;;;;;;;6.32;3.28;;;18.60;99.90;;;;;;4973495;28;20410;-64
2021/08/20 03:36:13;;;;;;;6.05;2.55;;;18.70;99.90;;;;;;4973627;28;20400;-64
2021/08/20 03:38:40;;;;;;;5.60;2.53;;;18.70;99.90;;;;;;4972602;28;20458;-64
2021/08/20 03:41:06;;;;;;;6.82;3.13;;;18.60;99.90;;;;;;4976629;28;20392;-64
2021/08/20 03:43:31;;;;;;;7.10;3.15;;;18.70;99.90;;;;;;4986185;28;20457;-66
2021/08/20 03:45:57;;;;;;;6.72;3.10;;;18.70;99.90;;;;;;4987254;28;20497;-64
2021/08/20 03:48:23;;;;;;;6.53;2.90;;;18.60;99.90;;;;;;4984872;28;20422;-64
2021/08/20 03:50:50;;;;;;;6.25;3.10;;;18.60;99.90;;;;;;4991712;28;20390;-64
2021/08/20 03:53:16;;;;;;;7.45;3.10;;;18.60;99.90;;;;;;4983705;28;20396;-61
2021/08/20 03:55:41;;;;;;;6.90;3.30;;;18.60;99.90;;;;;;4989556;28;20944;-64
2021/08/20 03:58:07;;;;;;;6.95;3.38;;;18.50;99.90;;;;;;4987684;28;20724;-64
2021/08/20 04:00:35;;;;;;;6.40;3.30;;;18.60;99.90;;;;;;4972238;28;20464;-64
2021/08/20 04:03:00;;;;;;;9.07;3.53;;;18.60;99.90;;;;;;4973299;28;20484;-64
2021/08/20 04:05:26;;;;;;;8.30;3.60;;;18.50;99.90;;;;;;4971802;28;20511;-64
2021/08/20 04:07:51;;;;;;;8.80;3.30;;;18.40;99.90;;;;;;4975952;28;20947;-64
2021/08/20 04:10:17;;;;;;;6.20;3.38;;;18.40;99.90;;;;;;4981254;28;20871;-60
2021/08/20 04:12:43;;;;;;;9.00;3.70;;;18.30;99.90;;;;;;4978670;28;20506;-64
2021/08/20 04:15:09;;;;;;;6.20;3.15;;;18.30;99.90;;;;;;4980549;28;20532;-64
2021/08/20 04:17:35;;;;;;;6.40;3.30;;;18.40;99.90;;;;;;4978870;28;20400;-64
2021/08/20 04:20:00;;;;;;;6.87;3.27;;;18.50;99.90;;;;;;4980034;28;20935;-63
2021/08/20 04:22:26;;;;;;;6.80;3.25;;;18.40;99.90;;;;;;4983516;28;20477;-64
2021/08/20 04:24:52;;;;;;;5.97;2.95;;;18.30;99.90;;;;;;4989819;28;20882;-64
2021/08/20 04:27:18;;;;;;;6.95;3.10;;;18.20;99.90;;;;;;4974508;28;20790;-64
2021/08/20 04:29:44;;;;;;;7.60;3.50;;;18.30;99.90;;;;;;4991032;28;20767;-64
2021/08/20 04:32:10;;;;;;;6.30;2.90;;;18.30;99.90;;;;;;4991559;28;20390;-64
2021/08/20 04:34:36;;;;;;;7.70;3.00;;;18.30;99.90;;;;;;4990744;28;20802;-63
2021/08/20 04:37:01;;;;;;;7.23;3.30;;;18.30;99.90;;;;;;4992091;28;20394;-65
2021/08/20 04:39:27;;;;;;;8.82;3.33;;;18.50;99.90;;;;;;4990891;28;20474;-63
2021/08/20 04:41:53;;;;;;;7.28;3.63;;;18.50;99.90;;;;;;4991689;28;20497;-64
2021/08/20 04:44:18;;;;;;;8.70;2.83;;;18.50;99.90;;;;;;4991645;28;20730;-64
2021/08/20 04:46:44;;;;;;;8.40;3.40;;;18.50;99.90;;;;;;4990562;28;20489;-64
2021/08/20 04:49:10;;;;;;;9.40;3.10;;;18.60;99.90;;;;;;4991364;28;20746;-64
2021/08/20 04:51:35;;;;;;;7.75;3.20;;;18.70;99.90;;;;;;4972936;28;20980;-64
2021/08/20 04:54:01;;;;;;;8.10;3.08;;;18.60;99.90;;;;;;4991466;28;20414;-64
2021/08/20 04:56:27;;;;;;;6.30;2.95;;;18.50;99.90;;;;;;4985766;28;20479;-64
2021/08/20 04:58:53;;;;;;;6.28;2.60;;;18.50;99.90;;;;;;4980044;28;20470;-64
2021/08/20 05:01:19;;;;;;;7.90;3.22;;;18.60;99.90;;;;;;4975655;28;20547;-64
2021/08/20 05:03:46;;;;;;;6.30;2.70;;;18.50;99.90;;;;;;4982585;28;20925;-64
2021/08/20 05:06:12;;;;;;;6.25;3.05;;;18.50;99.90;;;;;;4990742;28;20410;-64
2021/08/20 05:08:38;;;;;;;7.67;3.00;;;18.50;99.90;;;;;;4990172;28;20387;-64
2021/08/20 05:11:04;;;;;;;6.72;2.70;;;18.50;99.90;;;;;;4991040;28;20397;-64
2021/08/20 05:13:30;;;;;;;6.88;2.92;;;18.60;99.90;;;;;;4989751;28;20402;-64
2021/08/20 05:15:56;;;;;;;5.90;3.07;;;18.60;99.90;;;;;;4973508;28;20929;-65
2021/08/20 05:18:22;;;;;;;6.50;3.10;;;18.60;99.90;;;;;;4990734;28;20765;-60
2021/08/20 05:20:48;;;;;;;7.17;3.20;;;18.70;99.90;;;;;;4990358;28;20386;-64
2021/08/20 05:23:14;;;;;;;8.73;3.30;;;18.70;99.90;;;;;;4990844;28;20426;-64
2021/08/20 05:25:40;;;;;;;6.30;3.10;;;18.80;99.90;;;;;;4990142;28;20491;-64
2021/08/20 05:28:08;;;;;;;6.85;3.00;;;18.90;99.90;;;;;;4990999;28;20715;-64
2021/08/20 05:30:34;;;;;;;6.38;2.70;;;18.90;99.90;;;;;;4989981;28;20478;-64
2021/08/20 05:33:00;;;;;;;6.17;3.13;;;19.00;99.90;;;;;;4990742;28;20497;-64
2021/08/20 05:35:26;;;;;;;6.95;2.58;;;19.00;99.90;;;;;;4989388;28;20394;-61
2021/08/20 05:37:53;;;;;;;5.97;3.00;;;19.10;99.90;;;;;;4990500;28;20478;-64
2021/08/20 05:40:18;;;;;;;6.97;3.40;;;19.10;99.90;;;;;;4990406;28;20473;-65
2021/08/20 05:42:44;;;;;;;6.20;2.80;;;19.00;99.90;;;;;;4989785;28;20642;-64
2021/08/20 05:45:10;;;;;;;7.05;3.25;;;19.20;99.90;;;;;;4990870;28;20447;-64
2021/08/20 05:47:37;;;;;;;7.35;3.00;;;19.20;99.90;;;;;;4990110;28;20746;-64
2021/08/20 05:50:04;;;;;;;7.13;3.25;;;19.20;99.90;;;;;;4977443;28;20435;-64
2021/08/20 05:52:31;;;;;;;8.23;4.07;;;19.30;99.90;;;;;;4980896;28;20433;-63
2021/08/20 05:54:59;;;;;;;9.25;3.40;;;19.30;99.90;;;;;;4972181;28;20410;-64
2021/08/20 05:57:25;;;;;;;7.88;3.00;;;19.50;99.90;;;;;;4989344;28;20775;-60
2021/08/20 05:59:50;;;;;;;6.33;3.00;;;19.50;99.90;;;;;;4989917;28;20394;-64
2021/08/20 06:02:16;;;;;;;6.63;3.33;;;19.60;99.90;;;;;;4989881;28;20397;-63
2021/08/20 06:04:41;;;;;;;6.90;3.00;;;19.70;99.90;;;;;;4968045;28;20426;-64
2021/08/20 06:07:07;;;;;;;7.47;3.20;;;19.90;99.90;;;;;;4971321;28;20397;-65
2021/08/20 06:09:33;;;;;;;7.20;3.50;;;20.00;99.90;;;;;;4979778;28;20395;-62
2021/08/20 06:11:59;;;;;;;10.13;3.70;;;20.00;99.90;;;;;;4979509;28;20406;-64
2021/08/20 06:14:25;;;;;;;7.30;3.50;;;20.20;99.90;;;;;;4978615;28;20396;-60
2021/08/20 06:16:54;;;;;;;7.40;3.37;;;20.40;99.90;;;;;;4988268;28;20465;-65
2021/08/20 06:19:22;;;;;;;6.50;3.25;;;20.50;99.90;;;;;;4985752;28;20407;-66
2021/08/20 06:21:48;;;;;;;7.70;3.43;;;20.70;99.90;;;;;;4978651;28;20390;-63
2021/08/20 06:24:13;;;;;;;8.90;3.70;;;20.90;99.90;;;;;;4992890;28;20456;-62
2021/08/20 06:26:39;;;;;;;7.60;3.67;;;20.90;99.90;;;;;;4991934;28;20994;-61
2021/08/20 06:29:05;;;;;;;7.70;3.80;;;21.00;99.90;;;;;;4993653;28;20835;-62
2021/08/20 06:31:31;;;;;;;7.57;3.67;;;21.10;99.90;;;;;;4986131;28;20424;-59
2021/08/20 06:33:58;;;;;;;10.83;3.77;;;21.10;99.90;;;;;;4990080;28;20450;-62
2021/08/20 06:36:25;;;;;;;8.80;3.70;;;20.90;99.90;;;;;;4987744;28;20445;-61
2021/08/20 06:38:50;;;;;;;9.03;4.00;;;21.00;99.90;;;;;;4990369;28;20445;-61
2021/08/20 06:41:16;;;;;;;8.38;4.10;;;21.20;99.90;;;;;;4984194;28;20436;-60
2021/08/20 06:43:42;;;;;;;8.35;4.00;;;21.50;99.90;;;;;;4989813;28;20406;-63
2021/08/20 06:46:08;;;;;;;9.00;3.83;;;21.60;99.90;;;;;;4990712;28;20407;-61
2021/08/20 06:48:33;;;;;;;9.60;4.00;;;21.80;99.90;;;;;;4984112;28;20841;-62
2021/08/20 06:50:59;;;;;;;8.90;4.40;;;21.70;99.90;;;;;;4985409;28;20482;-63
2021/08/20 06:53:25;;;;;;;10.15;4.35;;;21.90;99.90;;;;;;4989616;28;20414;-62
2021/08/20 06:55:50;;;;;;;9.88;4.40;;;21.90;99.90;;;;;;4990782;28;20824;-63
2021/08/20 06:58:16;;;;;;;9.50;5.10;;;22.20;99.90;;;;;;4987486;28;20517;-60
2021/08/20 07:00:41;;;;;;;8.83;4.37;;;22.40;99.90;;;;;;4986966;28;20438;-62
2021/08/20 07:03:07;;;;;;;10.03;4.40;;;22.50;99.90;;;;;;4986202;28;20409;-61
2021/08/20 07:05:33;;;;;;;9.20;4.80;;;22.50;99.90;;;;;;4981856;28;20461;-62
2021/08/20 07:07:59;;;;;;;8.47;4.70;;;22.70;99.90;;;;;;4985463;28;20436;-63
2021/08/20 07:10:25;;;;;;;10.25;4.40;;;22.90;99.90;;;;;;4986006;28;20422;-62
2021/08/20 07:12:50;;;;;;;9.73;5.00;;;23.10;99.90;;;;;;4989488;28;20436;-66
2021/08/20 07:15:16;;;;;;;8.77;4.83;;;23.50;99.90;;;;;;4991882;28;20421;-66
2021/08/20 07:17:42;;;;;;;9.60;5.30;;;24.10;99.90;;;;;;4971346;28;20484;-66
2021/08/20 07:20:09;;;;;;;10.40;5.55;;;24.00;99.90;;;;;;4987147;28;20406;-65
2021/08/20 07:22:35;;;;;;;9.10;5.10;;;24.40;99.90;;;;;;4990926;28;20442;-65
2021/08/20 07:25:01;;;;;;;10.50;5.82;;;24.60;99.90;;;;;;4989216;28;21167;-66
2021/08/20 07:27:26;;;;;;;9.20;5.05;;;24.80;99.90;;;;;;4986962;28;20407;-66
2021/08/20 07:29:52;;;;;;;9.85;5.03;;;24.60;99.90;;;;;;4982845;28;20392;-65
2021/08/20 07:32:19;;;;;;;10.07;5.53;;;24.90;99.90;;;;;;4985853;28;20386;-64
2021/08/20 07:34:45;;;;;;;12.35;7.20;;;26.30;99.90;;;;;;4989273;28;20409;-64
2021/08/20 07:37:10;;;;;;;12.33;8.90;;;27.50;99.90;;;;;;4989121;28;20444;-64
2021/08/20 07:39:36;;;;;;;11.50;10.30;;;27.60;99.90;;;;;;4989042;28;20910;-63
2021/08/20 07:42:03;;;;;;;12.10;6.33;;;29.20;99.90;;;;;;4984598;28;20427;-64
2021/08/20 07:44:29;;;;;;;11.02;6.20;;;29.50;99.90;;;;;;4982075;28;20434;-64
2021/08/20 07:46:55;;;;;;;9.65;5.55;;;29.90;99.90;;;;;;4985218;28;20402;-64
2021/08/20 07:49:20;;;;;;;12.13;5.70;;;29.70;99.90;;;;;;4990780;28;20434;-64
2021/08/20 07:51:46;;;;;;;12.02;6.53;;;29.30;99.90;;;;;;4988618;28;20414;-64
2021/08/20 07:54:13;;;;;;;11.00;6.97;;;29.00;99.90;;;;;;4987845;28;20455;-64
2021/08/20 07:56:39;;;;;;;11.50;6.47;;;29.20;99.90;;;;;;4990061;28;20411;-66
2021/08/20 07:59:05;;;;;;;12.30;6.38;;;29.50;98.90;;;;;;4983556;28;20413;-64
2021/08/20 08:01:30;;;;;;;12.60;7.65;;;29.40;98.80;;;;;;4990505;28;20486;-65
2021/08/20 08:03:59;;;;;;;11.88;6.53;;;29.20;98.80;;;;;;4982235;28;20444;-65
2021/08/20 08:06:25;;;;;;;11.35;6.43;;;29.10;99.80;;;;;;4986507;28;20447;-65
2021/08/20 08:08:51;;;;;;;14.50;6.55;;;29.50;98.60;;;;;;4971536;28;20392;-64
2021/08/20 08:11:17;;;;;;;10.48;6.00;;;29.30;98.80;;;;;;4972139;28;20440;-66
2021/08/20 08:13:43;;;;;;;10.88;6.07;;;29.90;97.70;;;;;;4971401;28;20381;-65
2021/08/20 08:16:09;;;;;;;10.95;6.20;;;31.30;96.00;;;;;;4975671;28;20400;-66
2021/08/20 08:18:34;;;;;;;11.15;6.13;;;31.60;94.00;;;;;;4980070;28;20411;-61
2021/08/20 08:21:00;;;;;;;9.80;6.30;;;30.40;94.50;;;;;;4975733;28;20583;-64
2021/08/20 08:23:27;;;;;;;10.33;5.93;;;29.50;96.80;;;;;;4977798;28;20408;-66
2021/08/20 08:25:52;;;;;;;10.70;6.30;;;29.90;96.00;;;;;;4972878;28;20498;-67
2021/08/20 08:28:21;;;;;;;13.38;7.50;;;30.80;95.00;;;;;;4979614;28;20877;-67
2021/08/20 08:30:48;;;;;;;10.50;6.72;;;31.40;93.40;;;;;;4970970;28;20404;-69
2021/08/20 08:33:15;;;;;;;11.68;6.80;;;32.20;91.80;;;;;;4971559;28;20387;-67
2021/08/20 08:35:42;;;;;;;15.48;13.98;;;31.90;91.30;;;;;;4971327;28;20523;-68
2021/08/20 08:38:12;;;;;;;16.15;14.65;;;33.20;86.40;;;;;;4970739;28;20392;-69
2021/08/20 08:40:46;;;;;;;11.17;7.43;;;33.90;82.70;;;;;;4980180;28;20470;-67
2021/08/20 08:43:12;;;;;;;10.38;6.20;;;34.70;78.70;;;;;;4980124;28;20472;-68
2021/08/20 08:45:39;;;;;;;10.90;6.05;;;35.30;76.30;;;;;;4974980;28;20408;-63
2021/08/20 08:48:08;;;;;;;9.52;5.40;;;33.80;74.50;;;;;;4971971;28;20415;-68
2021/08/20 08:50:34;;;;;;;11.18;6.55;;;32.50;76.70;;;;;;4981301;28;20425;-64
2021/08/20 08:53:01;;;;;;;11.18;6.72;;;31.60;77.60;;;;;;4987402;28;20415;-68
2021/08/20 08:55:26;;;;;;;11.05;6.68;;;31.50;78.80;;;;;;4972986;28;20396;-67
2021/08/20 08:57:52;;;;;;;8.60;4.90;;;31.10;80.40;;;;;;4974764;28;20512;-68
2021/08/20 09:00:36;;;;;;;11.80;6.07;;;31.20;80.80;;;;;;4978348;28;20619;-67
2021/08/20 09:03:02;;;;;;;10.30;5.90;;;31.20;80.60;;;;;;4982126;28;20409;-68
2021/08/20 09:05:45;;;;;;;10.38;6.50;;;32.10;81.30;;;;;;4975764;28;20900;-67
2021/08/20 09:08:16;;;;;;;10.93;6.55;;;34.20;74.90;;;;;;4975657;28;20860;-69
2021/08/20 09:10:54;;;;;;;11.27;6.17;;;33.60;73.60;;;;;;4985606;28;20867;-67
2021/08/20 09:13:21;;;;;;;9.32;5.60;;;32.00;74.60;;;;;;4981711;28;20788;-69
2021/08/20 09:16:03;;;;;;;9.40;5.30;;;32.40;77.00;;;;;;4983453;28;20397;-68
2021/08/20 09:18:28;;;;;;;9.18;5.50;;;32.30;74.30;;;;;;4984054;28;20956;-67
2021/08/20 09:20:54;;;;;;;8.97;5.60;;;31.50;78.70;;;;;;4981939;28;20443;-67
2021/08/20 09:23:25;;;;;;;10.67;5.77;;;31.50;77.10;;;;;;4961557;28;20714;-68
2021/08/20 09:25:52;;;;;;;9.38;4.70;;;32.00;76.50;;;;;;4977240;28;20420;-68
2021/08/20 09:28:23;;;;;;;9.35;7.97;;;30.70;77.90;;;;;;4979129;28;20486;-69
2021/08/20 09:30:55;;;;;;;11.80;10.63;;;29.10;82.50;;;;;;4983703;28;20438;-68
2021/08/20 09:33:46;;;;;;;12.27;9.68;;;29.00;85.60;;;;;;4988426;28;20493;-68
2021/08/20 09:36:17;;;;;;;10.52;9.32;;;29.20;86.20;;;;;;4980795;28;20959;-67
2021/08/20 09:38:45;;;;;;;13.15;11.73;;;29.60;83.60;;;;;;4960235;28;20405;-66
2021/08/20 09:41:18;;;;;;;12.43;11.13;;;28.60;84.50;;;;;;4984667;28;20439;-69
2021/08/20 09:43:47;;;;;;;11.35;10.25;;;29.50;83.20;;;;;;4986939;28;20386;-68
2021/08/20 09:46:18;;;;;;;12.98;11.65;;;29.80;83.20;;;;;;4976360;28;20767;-69
2021/08/20 09:49:01;;;;;;;11.83;10.73;;;29.50;82.80;;;;;;4985060;28;20410;-68
2021/08/20 09:51:59;;;;;;;11.37;10.27;;;28.40;85.30;;;;;;4977525;28;20414;-68
2021/08/20 09:54:30;;;;;;;11.82;9.18;;;28.80;86.30;;;;;;4939638;28;20471;-67
2021/08/20 09:56:57;;;;;;;12.00;8.13;;;29.30;86.20;;;;;;4988971;28;20405;-68
2021/08/20 09:59:29;;;;;;;11.10;9.10;;;29.80;84.60;;;;;;4977695;28;20436;-69
2021/08/20 10:01:55;;;;;;;10.60;8.10;;;29.50;84.40;;;;;;4969643;28;20391;-68
2021/08/20 10:04:23;;;;;;;10.40;9.13;;;29.40;82.60;;;;;;4970321;28;20538;-69
2021/08/20 10:06:50;;;;;;;12.52;9.38;;;29.10;83.70;;;;;;4969389;28;20911;-68
2021/08/20 10:09:23;;;;;;;11.13;9.60;;;28.50;84.30;;;;;;4953132;28;20763;-68
2021/08/20 10:11:51;;;;;;;9.80;8.52;;;27.30;87.70;;;;;;4969244;28;20401;-68
2021/08/20 10:14:19;;;;;;;10.70;8.80;;;28.10;87.90;;;;;;4970845;28;20428;-67
2021/08/20 10:16:45;;;;;;;9.25;8.35;;;29.50;83.40;;;;;;4979008;28;20481;-65
2021/08/20 10:19:11;;;;;;;9.00;8.10;;;30.20;79.70;;;;;;4973105;28;20506;-65
2021/08/20 10:21:39;;;;;;;8.43;7.05;;;31.60;76.50;;;;;;4978030;28;20435;-68
2021/08/20 10:24:07;;;;;;;10.73;7.70;;;32.50;72.50;;;;;;4974702;28;20398;-68
2021/08/20 10:26:37;;;;;;;9.30;7.80;;;32.10;70.10;;;;;;4982430;28;20416;-68
2021/08/20 10:29:03;;;;;;;8.70;7.50;;;32.40;70.30;;;;;;4978714;28;20484;-66
2021/08/20 10:31:30;;;;;;;10.90;7.57;;;31.90;66.60;;;;;;4975267;28;20384;-67
2021/08/20 10:33:56;;;;;;;8.63;6.93;;;32.00;67.90;;;;;;4978525;28;20401;-68
2021/08/20 10:36:39;;;;;;;8.57;6.83;;;32.70;66.20;;;;;;4976627;28;20396;-67
2021/08/20 10:39:06;;;;;;;9.10;6.95;;;31.90;67.70;;;;;;4984832;28;20397;-68
2021/08/20 10:41:33;;;;;;;9.65;7.03;;;31.30;70.20;;;;;;4989126;28;20390;-67
2021/08/20 10:44:15;;;;;;;12.15;7.88;;;31.20;71.90;;;;;;4978272;28;20442;-67
2021/08/20 10:46:42;;;;;;;9.45;8.38;;;31.00;72.90;;;;;;4984495;28;20608;-65
2021/08/20 10:49:10;;;;;;;9.67;7.87;;;30.00;74.60;;;;;;4977001;28;20423;-65
2021/08/20 10:51:56;;;;;;;10.02;7.63;;;29.70;75.90;;;;;;4975352;28;20405;-66
2021/08/20 10:54:30;;;;;;;9.10;8.00;;;29.50;73.60;;;;;;4978697;28;20410;-66
2021/08/20 10:56:57;;;;;;;8.57;7.70;;;28.80;76.80;;;;;;4970315;28;20400;-64
2021/08/20 10:59:43;;;;;;;9.60;8.40;;;28.80;76.30;;;;;;4969561;28;20466;-66
2021/08/20 11:02:18;;;;;;;9.70;7.70;;;28.70;73.30;;;;;;4954772;28;20400;-66
2021/08/20 11:04:59;;;;;;;11.07;7.68;;;28.40;77.20;;;;;;4956058;28;20804;-66
2021/08/20 11:07:37;;;;;;;10.35;9.35;;;28.20;76.40;;;;;;4955731;28;20962;-65
2021/08/20 11:10:08;;;;;;;9.43;8.47;;;28.10;78.20;;;;;;4976120;28;20817;-66
2021/08/20 11:12:49;;;;;;;8.80;7.90;;;28.70;77.50;;;;;;4986181;28;20571;-66
2021/08/20 11:15:18;;;;;;;8.20;7.30;;;28.90;76.80;;;;;;4983189;28;20412;-66
2021/08/20 11:17:58;;;;;;;7.90;7.10;;;28.40;76.40;;;;;;4986579;28;20406;-65
2021/08/20 11:20:28;;;;;;;7.75;6.95;;;28.10;72.30;;;;;;4973882;28;20492;-65
2021/08/20 11:23:23;;;;;;;10.77;9.77;;;28.30;72.60;;;;;;4972382;28;20455;-65
2021/08/20 11:25:56;;;;;;;10.13;9.30;;;28.20;71.50;;;;;;4991126;28;20414;-62
2021/08/20 11:28:34;;;;;;;9.80;8.80;;;28.30;70.70;;;;;;4986092;28;20403;-65
2021/08/20 11:31:14;;;;;;;9.88;9.07;;;28.30;71.00;;;;;;4978565;28;20918;-66
2021/08/20 11:33:47;;;;;;;11.50;10.60;;;28.30;70.80;;;;;;4981627;28;21191;-63
2021/08/20 11:36:21;;;;;;;11.85;10.90;;;28.30;70.30;;;;;;4978119;28;20876;-65
2021/08/20 11:38:53;;;;;;;8.57;7.10;;;28.10;75.20;;;;;;4977395;28;20378;-61
2021/08/20 11:41:24;;;;;;;8.40;7.50;;;28.50;75.50;;;;;;4983224;28;20421;-64
2021/08/20 11:43:55;;;;;;;9.53;8.63;;;28.80;74.10;;;;;;4983074;28;20398;-60
2021/08/20 11:46:23;;;;;;;9.85;7.65;;;28.90;76.50;;;;;;4976369;28;20420;-62
2021/08/20 11:48:52;;;;;;;10.15;7.60;;;29.00;75.30;;;;;;4975577;28;20413;-59
2021/08/20 11:51:25;;;;;;;8.50;7.60;;;28.60;74.30;;;;;;4974405;28;20408;-62
2021/08/20 11:53:51;;;;;;;9.88;8.18;;;28.60;75.30;;;;;;4979693;28;20478;-59
2021/08/20 11:56:17;;;;;;;7.50;6.70;;;28.70;76.80;;;;;;4990261;28;20401;-62
2021/08/20 11:58:44;;;;;;;9.00;7.37;;;28.80;74.20;;;;;;4970052;28;20929;-61
2021/08/20 12:01:13;;;;;;;8.13;7.25;;;28.70;73.70;;;;;;4975981;28;20396;-62
2021/08/20 12:03:46;;;;;;;9.40;7.70;;;28.90;72.80;;;;;;4972030;28;20435;-62
2021/08/20 12:06:14;;;;;;;9.30;8.40;;;28.60;72.80;;;;;;4971013;28;20427;-62
2021/08/20 12:08:40;;;;;;;9.90;9.00;;;28.30;73.10;;;;;;4972036;28;20783;-62
2021/08/20 12:11:07;;;;;;;9.00;8.20;;;28.20;73.90;;;;;;4971409;28;20389;-62
2021/08/20 12:13:47;;;;;;;8.70;7.90;;;28.30;74.10;;;;;;4970504;28;20381;-62
2021/08/20 12:16:33;;;;;;;10.80;8.38;;;28.40;75.70;;;;;;4971220;28;20473;-62
2021/08/20 12:19:10;;;;;;;6.75;3.58;;;28.70;74.00;;;;;;4976241;28;20521;-62
2021/08/20 12:21:35;;;;;;;8.55;4.15;;;28.70;74.40;;;;;;4989088;28;20489;-62
2021/08/20 12:24:04;;;;;;;7.23;4.10;;;28.50;74.10;;;;;;4980601;28;20506;-62
2021/08/20 12:26:30;;;;;;;7.47;3.67;;;28.50;73.40;;;;;;4988444;28;20991;-62
2021/08/20 12:28:56;;;;;;;7.20;3.40;;;28.10;73.80;;;;;;4976348;28;20394;-62
2021/08/20 12:31:26;;;;;;;6.57;3.10;;;28.30;72.90;;;;;;4973823;28;20882;-62
2021/08/20 12:34:04;;;;;;;7.65;2.90;;;28.60;73.60;;;;;;4981015;28;20944;-59
2021/08/20 12:36:29;;;;;;;6.18;3.03;;;28.90;73.30;;;;;;4971528;28;20384;-62
2021/08/20 12:39:13;;;;;;;6.93;3.53;;;28.30;73.00;;;;;;4971219;28;20383;-62
2021/08/20 12:41:40;;;;;;;10.13;8.80;;;27.70;75.50;;;;;;4958812;28;20422;-62
2021/08/20 12:44:10;;;;;;;10.02;8.30;;;27.50;77.80;;;;;;4976178;28;20496;-62
2021/08/20 12:46:43;;;;;;;9.75;8.85;;;27.20;77.60;;;;;;4969768;28;20535;-63